sensor_id;sensor_type;location;lat;lon;timestamp;pressure;altitude;pressure_sealevel;temperature;humidity
63700;BME280;49845;47.130;142.766;2023-03-31T00:00:31;100269.44;;;5.40;91.71
63700;BME280;49845;47.130;142.766;2023-03-31T00:03:04;100266.91;;;5.52;91.05
63700;BME280;49845;47.130;142.766;2023-03-31T00:05:37;100277.34;;;5.68;90.68
63700;BME280;49845;47.130;142.766;2023-03-31T00:08:10;100276.50;;;5.76;90.09
63700;BME280;49845;47.130;142.766;2023-03-31T00:10:45;100263.50;;;5.69;89.87
63700;BME280;49845;47.130;142.766;2023-03-31T00:13:15;100254.00;;;5.71;89.55
63700;BME280;49845;47.130;142.766;2023-03-31T00:15:46;100267.00;;;5.86;89.09
63700;BME280;49845;47.130;142.766;2023-03-31T00:18:21;100266.22;;;5.95;89.36
63700;BME280;49845;47.130;142.766;2023-03-31T00:20:53;100261.84;;;5.92;88.67
63700;BME280;49845;47.130;142.766;2023-03-31T00:23:27;100269.72;;;6.12;88.56
63700;BME280;49845;47.130;142.766;2023-03-31T00:25:57;100273.22;;;6.34;88.17
63700;BME280;49845;47.130;142.766;2023-03-31T00:28:28;100268.88;;;6.42;87.25
63700;BME280;49845;47.130;142.766;2023-03-31T00:31:02;100276.66;;;6.45;86.27
63700;BME280;49845;47.130;142.766;2023-03-31T00:33:34;100283.59;;;6.43;86.30
63700;BME280;49845;47.130;142.766;2023-03-31T00:36:05;100264.53;;;6.26;85.81
63700;BME280;49845;47.130;142.766;2023-03-31T00:38:37;100284.44;;;6.36;85.56
63700;BME280;49845;47.130;142.766;2023-03-31T00:41:08;100282.72;;;6.41;85.56
63700;BME280;49845;47.130;142.766;2023-03-31T00:43:39;100286.19;;;6.40;85.51
63700;BME280;49845;47.130;142.766;2023-03-31T00:46:13;100287.06;;;6.45;85.19
63700;BME280;49845;47.130;142.766;2023-03-31T00:48:50;100265.41;;;6.25;84.64
63700;BME280;49845;47.130;142.766;2023-03-31T00:51:26;100286.19;;;6.40;84.34
63700;BME280;49845;47.130;142.766;2023-03-31T00:54:00;100287.06;;;6.32;84.30
63700;BME280;49845;47.130;142.766;2023-03-31T00:56:35;100293.09;;;6.29;84.99
63700;BME280;49845;47.130;142.766;2023-03-31T00:59:10;100296.53;;;6.19;84.56
63700;BME280;49845;47.130;142.766;2023-03-31T01:01:43;100298.28;;;6.23;84.94
63700;BME280;49845;47.130;142.766;2023-03-31T01:04:18;100296.56;;;6.34;84.88
63700;BME280;49845;47.130;142.766;2023-03-31T01:06:59;100229.06;;;6.19;84.61
63700;BME280;49845;47.130;142.766;2023-03-31T01:09:32;100294.88;;;6.72;84.23
63700;BME280;49845;47.130;142.766;2023-03-31T01:12:07;100289.66;;;6.70;83.38
63700;BME280;49845;47.130;142.766;2023-03-31T01:14:40;100294.84;;;6.65;83.44
63700;BME280;49845;47.130;142.766;2023-03-31T01:17:11;100300.91;;;6.75;82.73
63700;BME280;49845;47.130;142.766;2023-03-31T01:19:57;100304.38;;;6.86;82.67
63700;BME280;49845;47.130;142.766;2023-03-31T01:23:09;100306.09;;;7.04;82.52
63700;BME280;49845;47.130;142.766;2023-03-31T01:29:05;100265.38;;;7.14;81.26
63700;BME280;49845;47.130;142.766;2023-03-31T01:41:30;100296.50;;;7.42;79.71
63700;BME280;49845;47.130;142.766;2023-03-31T01:44:08;100299.09;;;7.35;79.40
63700;BME280;49845;47.130;142.766;2023-03-31T01:46:51;100308.63;;;7.37;79.66
63700;BME280;49845;47.130;142.766;2023-03-31T01:49:26;100304.28;;;7.31;80.02
63700;BME280;49845;47.130;142.766;2023-03-31T01:52:05;100302.56;;;7.33;79.59
63700;BME280;49845;47.130;142.766;2023-03-31T01:54:40;100300.81;;;7.49;80.24
63700;BME280;49845;47.130;142.766;2023-03-31T01:57:18;100298.13;;;7.61;79.55
63700;BME280;49845;47.130;142.766;2023-03-31T01:59:57;100292.94;;;7.61;79.26
63700;BME280;49845;47.130;142.766;2023-03-31T02:02:31;100271.31;;;7.44;79.32
63700;BME280;49845;47.130;142.766;2023-03-31T02:05:09;100292.03;;;7.74;79.17
63700;BME280;49845;47.130;142.766;2023-03-31T02:07:47;100296.34;;;7.82;78.46
63700;BME280;49845;47.130;142.766;2023-03-31T02:10:20;100287.63;;;7.89;78.33
63700;BME280;49845;47.130;142.766;2023-03-31T02:12:54;100287.63;;;7.89;77.70
63700;BME280;49845;47.130;142.766;2023-03-31T02:15:29;100280.72;;;7.85;77.91
63700;BME280;49845;47.130;142.766;2023-03-31T02:18:03;100282.41;;;7.92;78.20
63700;BME280;49845;47.130;142.766;2023-03-31T02:20:39;100199.41;;;7.43;77.59
63700;BME280;49845;47.130;142.766;2023-03-31T02:23:13;100279.88;;;7.80;77.46
63700;BME280;49845;47.130;142.766;2023-03-31T02:25:47;100280.72;;;7.85;77.94
63700;BME280;49845;47.130;142.766;2023-03-31T02:28:22;100202.94;;;7.32;77.63
63700;BME280;49845;47.130;142.766;2023-03-31T02:31:02;100277.28;;;7.76;77.59
63700;BME280;49845;47.130;142.766;2023-03-31T02:33:35;100272.13;;;7.67;77.23
63700;BME280;49845;47.130;142.766;2023-03-31T02:36:06;100283.41;;;7.62;77.28
63700;BME280;49845;47.130;142.766;2023-03-31T02:38:40;100165.03;;;6.58;77.80
63700;BME280;49845;47.130;142.766;2023-03-31T02:41:12;100253.31;;;6.61;79.44
63700;BME280;49845;47.130;142.766;2023-03-31T02:43:44;100261.06;;;6.18;82.33
63700;BME280;49845;47.130;142.766;2023-03-31T02:46:15;100290.44;;;5.97;84.13
63700;BME280;49845;47.130;142.766;2023-03-31T02:48:48;100180.34;;;5.04;85.55
63700;BME280;49845;47.130;142.766;2023-03-31T02:51:49;100281.63;;;5.58;86.25
63700;BME280;49845;47.130;142.766;2023-03-31T03:00:36;100286.88;;;5.72;86.96
63700;BME280;49845;47.130;142.766;2023-03-31T03:03:19;100285.13;;;5.71;86.64
63700;BME280;49845;47.130;142.766;2023-03-31T03:06:03;100288.63;;;5.80;86.63
63700;BME280;49845;47.130;142.766;2023-03-31T03:08:44;100294.66;;;5.81;86.66
63700;BME280;49845;47.130;142.766;2023-03-31T03:11:26;100300.66;;;5.66;86.84
63700;BME280;49845;47.130;142.766;2023-03-31T03:14:05;100283.28;;;5.45;86.68
63700;BME280;49845;47.130;142.766;2023-03-31T03:16:42;100280.63;;;5.27;88.24
63700;BME280;49845;47.130;142.766;2023-03-31T03:19:18;100284.03;;;5.23;88.47
63700;BME280;49845;47.130;142.766;2023-03-31T03:21:50;100284.03;;;5.23;88.37
63700;BME280;49845;47.130;142.766;2023-03-31T03:24:20;100244.97;;;4.87;88.41
63700;BME280;49845;47.130;142.766;2023-03-31T03:26:51;100296.91;;;5.10;88.93
63700;BME280;49845;47.130;142.766;2023-03-31T03:29:22;100295.84;;;4.84;89.42
63700;BME280;49845;47.130;142.766;2023-03-31T03:31:56;100301.81;;;4.70;89.58
63700;BME280;49845;47.130;142.766;2023-03-31T03:34:26;100286.94;;;4.45;90.39
63700;BME280;49845;47.130;142.766;2023-03-31T03:36:57;100304.97;;;4.37;91.13
63700;BME280;49845;47.130;142.766;2023-03-31T03:39:27;100294.53;;;4.31;91.15
63700;BME280;49845;47.130;142.766;2023-03-31T03:41:58;100298.91;;;4.37;91.26
63700;BME280;49845;47.130;142.766;2023-03-31T03:44:28;100293.72;;;4.37;91.66
63700;BME280;49845;47.130;142.766;2023-03-31T03:47:00;100297.09;;;4.26;90.82
63700;BME280;49845;47.130;142.766;2023-03-31T03:49:31;100293.44;;;4.06;91.13
63700;BME280;49845;47.130;142.766;2023-03-31T03:52:01;100299.16;;;3.79;92.60
63700;BME280;49845;47.130;142.766;2023-03-31T03:54:32;100307.66;;;3.68;93.00
63700;BME280;49845;47.130;142.766;2023-03-31T03:57:03;100307.66;;;3.68;93.01
63700;BME280;49845;47.130;142.766;2023-03-31T03:59:34;100307.66;;;3.67;93.62
63700;BME280;49845;47.130;142.766;2023-03-31T04:02:06;100308.38;;;3.57;93.74
63700;BME280;49845;47.130;142.766;2023-03-31T04:04:37;100313.31;;;3.38;93.78
63700;BME280;49845;47.130;142.766;2023-03-31T04:07:08;100320.88;;;3.24;94.25
63700;BME280;49845;47.130;142.766;2023-03-31T04:09:38;100318.03;;;3.08;94.91
63700;BME280;49845;47.130;142.766;2023-03-31T04:12:09;100316.09;;;2.94;95.40
63700;BME280;49845;47.130;142.766;2023-03-31T04:14:40;100317.63;;;2.80;96.08
63700;BME280;49845;47.130;142.766;2023-03-31T04:17:12;100321.84;;;2.75;96.46
63700;BME280;49845;47.130;142.766;2023-03-31T04:19:43;100319.13;;;2.69;96.27
63700;BME280;49845;47.130;142.766;2023-03-31T04:22:18;100326.91;;;2.72;96.10
63700;BME280;49845;47.130;142.766;2023-03-31T04:24:49;100329.16;;;2.50;95.70
63700;BME280;49845;47.130;142.766;2023-03-31T04:27:20;100334.09;;;2.38;95.38
63700;BME280;49845;47.130;142.766;2023-03-31T04:29:54;100339.13;;;2.32;96.34
63700;BME280;49845;47.130;142.766;2023-03-31T04:32:26;100330.34;;;2.21;95.78
63700;BME280;49845;47.130;142.766;2023-03-31T04:35:00;100342.38;;;2.22;95.93
63700;BME280;49845;47.130;142.766;2023-03-31T04:37:32;100336.94;;;2.06;95.96
63700;BME280;49845;47.130;142.766;2023-03-31T04:40:07;100352.22;;;1.97;96.27
63700;BME280;49845;47.130;142.766;2023-03-31T04:42:38;100353.84;;;1.92;96.49
63700;BME280;49845;47.130;142.766;2023-03-31T04:45:10;100358.81;;;1.83;96.13
63700;BME280;49845;47.130;142.766;2023-03-31T04:47:42;100360.28;;;1.71;97.29
63700;BME280;49845;47.130;142.766;2023-03-31T04:50:12;100365.97;;;1.55;96.68
63700;BME280;49845;47.130;142.766;2023-03-31T04:52:43;100373.53;;;1.49;96.81
63700;BME280;49845;47.130;142.766;2023-03-31T04:55:14;100368.41;;;1.49;96.92
63700;BME280;49845;47.130;142.766;2023-03-31T04:57:45;100371.88;;;1.51;96.64
63700;BME280;49845;47.130;142.766;2023-03-31T05:00:16;100375.16;;;1.44;96.40
63700;BME280;49845;47.130;142.766;2023-03-31T05:02:48;100369.66;;;1.28;96.89
63700;BME280;49845;47.130;142.766;2023-03-31T05:05:19;100374.75;;;1.25;97.21
63700;BME280;49845;47.130;142.766;2023-03-31T05:07:50;100369.44;;;1.19;97.61
63700;BME280;49845;47.130;142.766;2023-03-31T05:10:21;100343.41;;;1.07;97.73
63700;BME280;49845;47.130;142.766;2023-03-31T05:12:52;100373.16;;;1.31;97.73
63700;BME280;49845;47.130;142.766;2023-03-31T05:15:22;100367.94;;;1.27;97.57
63700;BME280;49845;47.130;142.766;2023-03-31T05:17:57;100376.53;;;1.28;97.87
63700;BME280;49845;47.130;142.766;2023-03-31T05:20:27;100371.09;;;1.17;97.76
63700;BME280;49845;47.130;142.766;2023-03-31T05:22:58;100373.16;;;1.31;98.18
63700;BME280;49845;47.130;142.766;2023-03-31T05:25:29;100381.16;;;1.43;98.45
63700;BME280;49845;47.130;142.766;2023-03-31T05:28:00;100373.53;;;1.49;97.78
63700;BME280;49845;47.130;142.766;2023-03-31T05:30:31;100353.53;;;1.37;97.52
63700;BME280;49845;47.130;142.766;2023-03-31T05:33:03;100373.75;;;1.58;97.86
63700;BME280;49845;47.130;142.766;2023-03-31T05:35:34;100340.91;;;1.48;97.47
63700;BME280;49845;47.130;142.766;2023-03-31T05:38:04;100374.13;;;1.77;97.30
63700;BME280;49845;47.130;142.766;2023-03-31T05:40:35;100365.38;;;1.68;96.83
63700;BME280;49845;47.130;142.766;2023-03-31T05:43:06;100372.91;;;1.58;96.30
63700;BME280;49845;47.130;142.766;2023-03-31T05:45:36;100383.78;;;1.46;95.92
63700;BME280;49845;47.130;142.766;2023-03-31T05:48:09;100385.22;;;1.35;96.68
63700;BME280;49845;47.130;142.766;2023-03-31T05:50:39;100390.03;;;1.19;97.49
63700;BME280;49845;47.130;142.766;2023-03-31T05:53:10;100397.72;;;1.18;98.03
63700;BME280;49845;47.130;142.766;2023-03-31T05:55:40;100381.38;;;1.17;98.53
63700;BME280;49845;47.130;142.766;2023-03-31T05:58:11;100389.84;;;1.10;98.33
63700;BME280;49845;47.130;142.766;2023-03-31T06:00:42;100388.88;;;1.06;98.76
63700;BME280;49845;47.130;142.766;2023-03-31T06:03:14;100391.13;;;0.93;99.68
63700;BME280;49845;47.130;142.766;2023-03-31T06:05:47;100394.50;;;0.92;99.68
63700;BME280;49845;47.130;142.766;2023-03-31T06:08:21;100399.59;;;0.89;99.97
63700;BME280;49845;47.130;142.766;2023-03-31T06:10:52;100392.47;;;0.78;100.00
63700;BME280;49845;47.130;142.766;2023-03-31T06:13:23;100403.56;;;0.76;100.00
63700;BME280;49845;47.130;142.766;2023-03-31T06:15:54;100374.50;;;0.47;100.00
63700;BME280;49845;47.130;142.766;2023-03-31T06:18:27;100403.19;;;0.62;100.00
63700;BME280;49845;47.130;142.766;2023-03-31T06:20:58;100411.09;;;0.68;100.00
63700;BME280;49845;47.130;142.766;2023-03-31T06:23:29;100408.53;;;0.70;100.00
63700;BME280;49845;47.130;142.766;2023-03-31T06:26:01;100405.88;;;0.65;100.00
63700;BME280;49845;47.130;142.766;2023-03-31T06:28:32;100423.16;;;0.72;100.00
63700;BME280;49845;47.130;142.766;2023-03-31T06:31:04;100416.25;;;0.70;100.00
63700;BME280;49845;47.130;142.766;2023-03-31T06:33:37;100419.06;;;0.79;100.00
63700;BME280;49845;47.130;142.766;2023-03-31T06:36:08;100379.81;;;0.53;100.00
63700;BME280;49845;47.130;142.766;2023-03-31T06:38:40;100428.25;;;0.69;100.00
63700;BME280;49845;47.130;142.766;2023-03-31T06:41:12;100438.28;;;0.60;100.00
63700;BME280;49845;47.130;142.766;2023-03-31T06:43:44;100429.41;;;0.49;100.00
63700;BME280;49845;47.130;142.766;2023-03-31T06:46:14;100438.84;;;0.48;100.00
63700;BME280;49845;47.130;142.766;2023-03-31T06:48:47;100429.34;;;0.46;100.00
63700;BME280;49845;47.130;142.766;2023-03-31T06:51:18;100442.19;;;0.46;100.00
63700;BME280;49845;47.130;142.766;2023-03-31T06:53:49;100442.19;;;0.46;100.00
63700;BME280;49845;47.130;142.766;2023-03-31T06:56:20;100444.84;;;0.49;100.00
63700;BME280;49845;47.130;142.766;2023-03-31T06:58:50;100412.75;;;0.34;100.00
63700;BME280;49845;47.130;142.766;2023-03-31T07:01:21;100437.97;;;0.48;100.00
63700;BME280;49845;47.130;142.766;2023-03-31T07:03:53;100456.84;;;0.50;100.00
63700;BME280;49845;47.130;142.766;2023-03-31T07:06:24;100456.69;;;0.43;100.00
63700;BME280;49845;47.130;142.766;2023-03-31T07:09:00;100437.44;;;0.29;100.00
63700;BME280;49845;47.130;142.766;2023-03-31T07:11:31;100456.34;;;0.31;100.00
63700;BME280;49845;47.130;142.766;2023-03-31T07:14:02;100451.16;;;0.30;100.00
63700;BME280;49845;47.130;142.766;2023-03-31T07:16:33;100452.28;;;0.38;100.00
63700;BME280;49845;47.130;142.766;2023-03-31T07:19:07;100458.19;;;0.35;100.00
63700;BME280;49845;47.130;142.766;2023-03-31T07:21:38;100463.34;;;0.35;100.00
63700;BME280;49845;47.130;142.766;2023-03-31T07:24:10;100468.22;;;0.26;100.00
63700;BME280;49845;47.130;142.766;2023-03-31T07:26:42;100469.78;;;0.21;100.00
63700;BME280;49845;47.130;142.766;2023-03-31T07:29:13;100459.06;;;0.06;100.00
63700;BME280;49845;47.130;142.766;2023-03-31T07:31:46;100483.19;;;0.11;100.00
63700;BME280;49845;47.130;142.766;2023-03-31T07:34:18;100477.97;;;0.08;100.00
63700;BME280;49845;47.130;142.766;2023-03-31T07:36:49;100468.47;;;0.05;100.00
63700;BME280;49845;47.130;142.766;2023-03-31T07:39:21;100472.53;;;-0.02;100.00
63700;BME280;49845;47.130;142.766;2023-03-31T07:41:51;100483.75;;;0.01;100.00
63700;BME280;49845;47.130;142.766;2023-03-31T07:44:22;100503.16;;;-0.08;100.00
63700;BME280;49845;47.130;142.766;2023-03-31T07:46:52;100509.06;;;-0.12;100.00
63700;BME280;49845;47.130;142.766;2023-03-31T07:49:25;100507.28;;;-0.14;100.00
63700;BME280;49845;47.130;142.766;2023-03-31T07:51:55;100509.09;;;-0.10;100.00
63700;BME280;49845;47.130;142.766;2023-03-31T07:54:26;100508.84;;;-0.18;100.00
63700;BME280;49845;47.130;142.766;2023-03-31T07:56:59;100500.97;;;-0.24;100.00
63700;BME280;49845;47.130;142.766;2023-03-31T07:59:31;100432.59;;;-0.76;100.00
63700;BME280;49845;47.130;142.766;2023-03-31T08:02:02;100517.84;;;-0.32;100.00
63700;BME280;49845;47.130;142.766;2023-03-31T08:04:34;100464.31;;;-0.74;100.00
63700;BME280;49845;47.130;142.766;2023-03-31T08:07:05;100520.91;;;-0.43;100.00
63700;BME280;49845;47.130;142.766;2023-03-31T08:09:37;100518.63;;;-0.35;100.00
63700;BME280;49845;47.130;142.766;2023-03-31T08:12:08;100519.41;;;-0.37;100.00
63700;BME280;49845;47.130;142.766;2023-03-31T08:14:38;100519.28;;;-0.40;100.00
63700;BME280;49845;47.130;142.766;2023-03-31T08:17:12;100536.44;;;-0.39;100.00
63700;BME280;49845;47.130;142.766;2023-03-31T08:19:44;100536.44;;;-0.39;100.00
63700;BME280;49845;47.130;142.766;2023-03-31T08:22:17;100528.53;;;-0.46;100.00
63700;BME280;49845;47.130;142.766;2023-03-31T08:24:47;100529.44;;;-0.44;100.00
63700;BME280;49845;47.130;142.766;2023-03-31T08:27:22;100534.41;;;-0.50;100.00
63700;BME280;49845;47.130;142.766;2023-03-31T08:29:56;100546.31;;;-0.52;100.00
63700;BME280;49845;47.130;142.766;2023-03-31T08:32:34;100541.09;;;-0.55;100.00
63700;BME280;49845;47.130;142.766;2023-03-31T08:35:07;100543.78;;;-0.50;100.00
63700;BME280;49845;47.130;142.766;2023-03-31T08:37:38;100529.06;;;-0.56;100.00
63700;BME280;49845;47.130;142.766;2023-03-31T08:40:18;100546.31;;;-0.52;100.00
63700;BME280;49845;47.130;142.766;2023-03-31T08:42:50;100540.16;;;-0.57;100.00
63700;BME280;49845;47.130;142.766;2023-03-31T08:45:26;100485.59;;;-1.02;100.00
63700;BME280;49845;47.130;142.766;2023-03-31T08:48:02;100551.75;;;-0.68;100.00
63700;BME280;49845;47.130;142.766;2023-03-31T08:50:44;100561.63;;;-0.55;100.00
63700;BME280;49845;47.130;142.766;2023-03-31T08:53:21;100561.50;;;-0.58;100.00
63700;BME280;49845;47.130;142.766;2023-03-31T08:55:57;100559.75;;;-0.59;100.00
63700;BME280;49845;47.130;142.766;2023-03-31T08:58:33;100565.72;;;-0.60;100.00
63700;BME280;49845;47.130;142.766;2023-03-31T09:01:17;100572.50;;;-0.62;100.00
63700;BME280;49845;47.130;142.766;2023-03-31T09:04:08;100572.53;;;-0.60;100.00
63700;BME280;49845;47.130;142.766;2023-03-31T09:06:52;100526.00;;;-0.97;100.00
63700;BME280;49845;47.130;142.766;2023-03-31T09:09:31;100584.44;;;-0.62;100.00
63700;BME280;49845;47.130;142.766;2023-03-31T09:12:10;100590.47;;;-0.62;100.00
63700;BME280;49845;47.130;142.766;2023-03-31T09:14:50;100585.34;;;-0.62;100.00
63700;BME280;49845;47.130;142.766;2023-03-31T09:17:30;100501.22;;;-1.20;100.00
63700;BME280;49845;47.130;142.766;2023-03-31T09:20:06;100593.97;;;-0.60;100.00
63700;BME280;49845;47.130;142.766;2023-03-31T09:22:51;100595.88;;;-0.53;100.00
63700;BME280;49845;47.130;142.766;2023-03-31T09:25:25;100594.34;;;-0.48;100.00
63700;BME280;49845;47.130;142.766;2023-03-31T09:27:58;100557.72;;;-0.69;100.00
63700;BME280;49845;47.130;142.766;2023-03-31T09:30:45;100592.69;;;-0.46;100.00
63700;BME280;49845;47.130;142.766;2023-03-31T09:33:27;100591.06;;;-0.44;100.00
63700;BME280;49845;47.130;142.766;2023-03-31T09:36:00;100607.41;;;-0.41;100.00
63700;BME280;49845;47.130;142.766;2023-03-31T09:38:33;100606.69;;;-0.37;100.00
63700;BME280;49845;47.130;142.766;2023-03-31T09:41:03;100593.78;;;-0.39;100.00
63700;BME280;49845;47.130;142.766;2023-03-31T09:43:37;100592.81;;;-0.43;100.00
63700;BME280;49845;47.130;142.766;2023-03-31T09:46:16;100594.56;;;-0.41;100.00
63700;BME280;49845;47.130;142.766;2023-03-31T09:48:54;100595.38;;;-0.43;100.00
63700;BME280;49845;47.130;142.766;2023-03-31T09:51:34;100598.25;;;-0.33;100.00
63700;BME280;49845;47.130;142.766;2023-03-31T09:54:20;100603.47;;;-0.30;100.00
63700;BME280;49845;47.130;142.766;2023-03-31T09:56:57;100618.19;;;-0.26;100.00
63700;BME280;49845;47.130;142.766;2023-03-31T09:59:38;100612.34;;;-0.22;100.00
63700;BME280;49845;47.130;142.766;2023-03-31T10:02:34;100620.97;;;-0.20;100.00
63700;BME280;49845;47.130;142.766;2023-03-31T10:05:25;100615.69;;;-0.23;100.00
63700;BME280;49845;47.130;142.766;2023-03-31T10:08:23;100619.09;;;-0.24;100.00
63700;BME280;49845;47.130;142.766;2023-03-31T10:11:06;100601.75;;;-0.31;100.00
63700;BME280;49845;47.130;142.766;2023-03-31T10:13:45;100620.66;;;-0.29;100.00
63700;BME280;49845;47.130;142.766;2023-03-31T10:16:29;100618.28;;;-0.23;100.00
63700;BME280;49845;47.130;142.766;2023-03-31T10:19:22;100620.75;;;-0.26;100.00
63700;BME280;49845;47.130;142.766;2023-03-31T10:21:56;100613.88;;;-0.27;100.00
63700;BME280;49845;47.130;142.766;2023-03-31T10:24:36;100575.47;;;-0.50;100.00
63700;BME280;49845;47.130;142.766;2023-03-31T10:27:17;100621.59;;;-0.26;100.00
63700;BME280;49845;47.130;142.766;2023-03-31T10:29:55;100624.25;;;-0.24;100.00
63700;BME280;49845;47.130;142.766;2023-03-31T10:32:27;100632.97;;;-0.19;100.00
63700;BME280;49845;47.130;142.766;2023-03-31T10:35:04;100539.75;;;-0.69;100.00
63700;BME280;49845;47.130;142.766;2023-03-31T10:37:36;100627.13;;;-0.15;100.00
63700;BME280;49845;47.130;142.766;2023-03-31T10:40:14;100635.06;;;-0.07;100.00
63700;BME280;49845;47.130;142.766;2023-03-31T10:42:59;100634.91;;;-0.12;100.00
63700;BME280;49845;47.130;142.766;2023-03-31T10:45:36;100629.88;;;-0.09;100.00
63700;BME280;49845;47.130;142.766;2023-03-31T10:48:22;100570.44;;;-0.47;100.00
63700;BME280;49845;47.130;142.766;2023-03-31T10:50:54;100642.00;;;-0.05;100.00
63700;BME280;49845;47.130;142.766;2023-03-31T10:53:27;100656.59;;;-0.04;100.00
63700;BME280;49845;47.130;142.766;2023-03-31T10:56:12;100643.66;;;-0.07;100.00
63700;BME280;49845;47.130;142.766;2023-03-31T10:59:02;100638.50;;;-0.07;100.00
63700;BME280;49845;47.130;142.766;2023-03-31T11:01:46;100634.91;;;-0.12;100.00
63700;BME280;49845;47.130;142.766;2023-03-31T11:04:48;100652.47;;;0.02;100.00
63700;BME280;49845;47.130;142.766;2023-03-31T11:07:40;100647.41;;;0.05;100.00
63700;BME280;49845;47.130;142.766;2023-03-31T11:10:35;100654.09;;;-0.01;100.00
63700;BME280;49845;47.130;142.766;2023-03-31T11:13:06;100654.09;;;-0.01;100.00
63700;BME280;49845;47.130;142.766;2023-03-31T11:15:48;100635.00;;;-0.09;100.00
63700;BME280;49845;47.130;142.766;2023-03-31T11:18:35;100637.66;;;-0.06;100.00
63700;BME280;49845;47.130;142.766;2023-03-31T11:21:19;100643.69;;;-0.05;100.00
63700;BME280;49845;47.130;142.766;2023-03-31T11:24:02;100641.22;;;-0.02;100.00
63700;BME280;49845;47.130;142.766;2023-03-31T11:26:45;100642.97;;;-0.01;100.00
63700;BME280;49845;47.130;142.766;2023-03-31T11:29:29;100635.19;;;-0.03;100.00
63700;BME280;49845;47.130;142.766;2023-03-31T11:32:19;100648.97;;;-0.01;100.00
63700;BME280;49845;47.130;142.766;2023-03-31T11:35:05;100574.13;;;-0.38;100.00
63700;BME280;49845;47.130;142.766;2023-03-31T11:37:53;100643.97;;;0.03;100.00
63700;BME280;49845;47.130;142.766;2023-03-31T11:40:36;100645.44;;;-0.04;100.00
63700;BME280;49845;47.130;142.766;2023-03-31T11:43:15;100650.72;;;0.01;100.00
63700;BME280;49845;47.130;142.766;2023-03-31T11:45:51;100648.25;;;0.04;100.00
63700;BME280;49845;47.130;142.766;2023-03-31T11:48:32;100649.09;;;0.03;100.00
63700;BME280;49845;47.130;142.766;2023-03-31T11:51:11;100644.50;;;-0.06;100.00
63700;BME280;49845;47.130;142.766;2023-03-31T11:53:44;100655.09;;;0.03;100.00
63700;BME280;49845;47.130;142.766;2023-03-31T11:56:19;100659.38;;;0.03;100.00
63700;BME280;49845;47.130;142.766;2023-03-31T11:58:52;100653.34;;;0.02;100.00
63700;BME280;49845;47.130;142.766;2023-03-31T12:01:28;100636.75;;;-0.08;100.00
63700;BME280;49845;47.130;142.766;2023-03-31T12:04:19;100655.97;;;0.04;100.00
63700;BME280;49845;47.130;142.766;2023-03-31T12:06:58;100668.09;;;0.08;100.00
63700;BME280;49845;47.130;142.766;2023-03-31T12:09:36;100649.97;;;0.03;100.00
63700;BME280;49845;47.130;142.766;2023-03-31T12:12:13;100663.84;;;0.10;100.00
63700;BME280;49845;47.130;142.766;2023-03-31T12:14:48;100662.97;;;0.08;100.00
63700;BME280;49845;47.130;142.766;2023-03-31T12:17:26;100646.41;;;-0.01;100.00
63700;BME280;49845;47.130;142.766;2023-03-31T12:20:00;100644.66;;;-0.02;100.00
63700;BME280;49845;47.130;142.766;2023-03-31T12:22:36;100657.81;;;0.08;100.00
63700;BME280;49845;47.130;142.766;2023-03-31T12:25:11;100664.69;;;0.09;100.00
63700;BME280;49845;47.130;142.766;2023-03-31T12:27:43;100658.84;;;0.13;100.00
63700;BME280;49845;47.130;142.766;2023-03-31T12:30:27;100652.78;;;0.11;100.00
63700;BME280;49845;47.130;142.766;2023-03-31T12:33:01;100620.44;;;-0.10;100.00
63700;BME280;49845;47.130;142.766;2023-03-31T12:35:46;100652.88;;;0.14;100.00
63700;BME280;49845;47.130;142.766;2023-03-31T12:38:34;100635.50;;;0.07;100.00
63700;BME280;49845;47.130;142.766;2023-03-31T12:41:11;100648.59;;;0.14;100.00
63700;BME280;49845;47.130;142.766;2023-03-31T12:44:04;100656.38;;;0.16;100.00
63700;BME280;49845;47.130;142.766;2023-03-31T12:46:54;100658.88;;;0.14;100.00
63700;BME280;49845;47.130;142.766;2023-03-31T12:49:53;100648.59;;;0.14;100.00
63700;BME280;49845;47.130;142.766;2023-03-31T12:52:36;100654.50;;;0.12;100.00
63700;BME280;49845;47.130;142.766;2023-03-31T12:55:40;100663.06;;;0.11;100.00
63700;BME280;49845;47.130;142.766;2023-03-31T12:58:37;100656.06;;;0.07;100.00
63700;BME280;49845;47.130;142.766;2023-03-31T13:01:14;100662.03;;;0.06;100.00
63700;BME280;49845;47.130;142.766;2023-03-31T13:03:52;100614.91;;;-0.22;100.00
63700;BME280;49845;47.130;142.766;2023-03-31T13:06:49;100655.88;;;0.01;100.00
63700;BME280;49845;47.130;142.766;2023-03-31T13:09:43;100622.78;;;-0.16;100.00
63700;BME280;49845;47.130;142.766;2023-03-31T13:12:16;100661.78;;;-0.02;100.00
63700;BME280;49845;47.130;142.766;2023-03-31T13:14:51;100655.75;;;-0.03;100.00
63700;BME280;49845;47.130;142.766;2023-03-31T13:17:30;100667.69;;;-0.05;100.00
63700;BME280;49845;47.130;142.766;2023-03-31T13:20:23;100659.06;;;-0.07;100.00
63700;BME280;49845;47.130;142.766;2023-03-31T13:23:02;100627.63;;;-0.25;100.00
63700;BME280;49845;47.130;142.766;2023-03-31T13:25:42;100593.47;;;-0.48;100.00
63700;BME280;49845;47.130;142.766;2023-03-31T13:28:39;100616.41;;;-0.53;100.00
63700;BME280;49845;47.130;142.766;2023-03-31T13:31:12;100657.09;;;-0.14;100.00
63700;BME280;49845;47.130;142.766;2023-03-31T13:33:48;100660.59;;;-0.12;100.00